createdAt,value
2019-05-22T00:04:59.128Z,72.60
2019-05-22T00:10:09.605Z,72.50
2019-05-22T00:15:15.965Z,72.50
2019-05-22T00:20:24.823Z,72.30
2019-05-22T00:25:33.429Z,72.30
2019-05-22T00:30:41.990Z,72.30
2019-05-22T00:35:47.292Z,72.30
2019-05-22T00:40:58.238Z,72.40
2019-05-22T00:46:05.171Z,72.30
2019-05-22T00:51:31.951Z,72.20
2019-05-22T00:56:41.217Z,72.20
2019-05-22T01:01:47.879Z,72.20
2019-05-22T01:06:54.941Z,72.30
2019-05-22T01:12:01.637Z,72.30
2019-05-22T01:17:08.147Z,72.30
2019-05-22T01:22:15.070Z,72.20
2019-05-22T01:27:21.831Z,72.20
2019-05-22T01:32:34.468Z,72.20
2019-05-22T01:37:40.788Z,72.20
2019-05-22T01:42:47.055Z,73.20
2019-05-22T01:48:02.751Z,72.30
2019-05-22T01:53:08.373Z,72.40
2019-05-22T01:58:15.707Z,73.20
2019-05-22T02:03:21.927Z,72.30
2019-05-22T02:08:28.274Z,72.20
2019-05-22T02:13:39.076Z,72.10
2019-05-22T02:18:46.078Z,71.80
2019-05-22T02:23:51.396Z,71.20
2019-05-22T02:28:55.804Z,71.70
2019-05-22T02:34:06.210Z,71.70
2019-05-22T02:39:17.955Z,71.70
2019-05-22T02:44:23.584Z,71.70
2019-05-22T02:49:28.986Z,71.70
2019-05-22T02:54:34.520Z,71.60
2019-05-22T02:59:39.943Z,71.70
2019-05-22T03:05:00.853Z,71.60
2019-05-22T03:10:08.082Z,71.60
2019-05-22T03:15:16.273Z,71.60
2019-05-22T03:20:23.387Z,71.70
2019-05-22T03:25:30.270Z,71.70
2019-05-22T03:30:39.891Z,71.50
2019-05-22T03:35:50.208Z,71.40
2019-05-22T03:40:54.724Z,71.50
2019-05-22T03:46:05.382Z,71.30
2019-05-22T03:51:13.416Z,71.30
2019-05-22T03:56:20.348Z,71.20
2019-05-22T04:01:26.409Z,71.30
2019-05-22T04:06:32.520Z,71.20
2019-05-22T04:11:41.797Z,71.10
2019-05-22T04:16:47.417Z,71.20
2019-05-22T04:21:52.125Z,71.40
2019-05-22T04:26:56.774Z,71.50
2019-05-22T04:32:19.009Z,71.80
2019-05-22T04:37:25.211Z,71.80
2019-05-22T04:42:30.817Z,71.80
2019-05-22T04:47:37.389Z,72.00
2019-05-22T04:52:41.854Z,72.10
2019-05-22T04:57:46.185Z,72.20
2019-05-22T05:02:51.737Z,72.20
2019-05-22T05:07:56.457Z,72.30
2019-05-22T05:13:00.900Z,72.50
2019-05-22T05:18:05.286Z,72.50
2019-05-22T05:23:09.942Z,72.60
2019-05-22T05:28:15.614Z,72.50
2019-05-22T05:33:20.287Z,72.30
2019-05-22T05:38:37.222Z,72.30
2019-05-22T05:43:41.774Z,72.20
2019-05-22T05:48:48.716Z,72.10
2019-05-22T05:54:04.093Z,72.10
2019-05-22T05:59:09.902Z,72.10
2019-05-22T06:04:32.199Z,71.90
2019-05-22T06:09:30.095Z,71.50
2019-05-22T06:14:36.628Z,71.00
2019-05-22T06:20:04.245Z,71.50
2019-05-22T06:25:10.085Z,70.40
2019-05-22T06:30:18.237Z,70.50
2019-05-22T06:35:23.190Z,70.50
2019-05-22T06:40:28.669Z,71.00
2019-05-22T06:45:35.674Z,69.50
2019-05-22T06:50:39.664Z,69.30
2019-05-22T06:55:44.190Z,69.00
2019-05-22T07:00:49.083Z,68.20
2019-05-22T07:05:54.630Z,68.30
2019-05-22T07:10:59.001Z,67.80
2019-05-22T07:16:04.619Z,67.40
2019-05-22T07:21:09.927Z,66.70
2019-05-22T07:26:14.851Z,66.70
2019-05-22T07:31:20.200Z,66.70
2019-05-22T07:36:25.871Z,65.80
2019-05-22T07:41:30.848Z,65.20
2019-05-22T07:46:35.689Z,64.20
2019-05-22T07:51:51.957Z,63.40
2019-05-22T07:56:46.993Z,61.70
2019-05-22T08:01:51.438Z,61.50
2019-05-22T08:06:56.097Z,60.90
2019-05-22T08:12:00.716Z,60.70
2019-05-22T08:17:06.571Z,61.00
2019-05-22T08:22:11.319Z,60.60
2019-05-22T08:27:18.621Z,60.30
2019-05-22T08:32:23.020Z,60.10
2019-05-22T08:37:31.716Z,60.30
2019-05-22T08:42:36.478Z,60.70
2019-05-22T08:47:41.512Z,60.10
2019-05-22T08:52:46.764Z,60.10
2019-05-22T08:57:51.594Z,60.10
2019-05-22T09:02:56.673Z,59.50
2019-05-22T09:08:01.500Z,59.40
2019-05-22T09:13:05.940Z,59.40
2019-05-22T09:18:11.370Z,59.40
2019-05-22T09:23:16.386Z,59.00
2019-05-22T09:28:21.504Z,58.90
2019-05-22T09:33:25.932Z,58.90
2019-05-22T09:38:31.386Z,59.10
2019-05-22T09:43:36.035Z,58.90
2019-05-22T09:48:40.476Z,58.60
2019-05-22T09:53:46.889Z,58.80
2019-05-22T09:58:51.304Z,58.50
2019-05-22T10:03:56.111Z,58.40
2019-05-22T10:09:00.494Z,58.40
2019-05-22T10:14:07.462Z,58.40
2019-05-22T10:19:12.591Z,58.20
2019-05-22T10:24:17.890Z,58.10
2019-05-22T10:29:22.197Z,58.00
2019-05-22T10:34:26.977Z,58.00
2019-05-22T10:39:32.155Z,58.30
2019-05-22T10:44:37.023Z,58.40
2019-05-22T10:49:41.412Z,58.00
2019-05-22T10:54:45.850Z,58.00
2019-05-22T10:59:50.358Z,58.10
2019-05-22T11:04:54.846Z,58.40
2019-05-22T11:09:59.169Z,57.80
2019-05-22T11:15:07.410Z,57.50
2019-05-22T11:20:15.002Z,57.30
2019-05-22T11:25:20.458Z,57.40
2019-05-22T11:30:25.585Z,56.30
2019-05-22T11:35:30.611Z,56.90
2019-05-22T11:40:34.923Z,56.20
2019-05-22T11:45:39.611Z,55.70
2019-05-22T11:50:44.722Z,55.30
2019-05-22T11:55:49.106Z,55.30
2019-05-22T12:00:53.404Z,54.70
2019-05-22T12:05:57.849Z,54.70
2019-05-22T12:11:03.831Z,54.30
2019-05-22T12:16:08.657Z,54.20
2019-05-22T12:21:12.961Z,53.70
2019-05-22T12:26:17.279Z,53.40
2019-05-22T12:31:22.483Z,52.90
2019-05-22T12:36:28.689Z,52.20
2019-05-22T12:41:33.204Z,51.80
2019-05-22T12:46:38.346Z,51.60
2019-05-22T12:51:43.778Z,50.50
2019-05-22T12:56:48.546Z,50.50
2019-05-22T13:01:52.923Z,48.80
2019-05-22T13:06:57.324Z,49.00
2019-05-22T13:12:01.706Z,48.90
2019-05-22T13:17:09.596Z,47.80
2019-05-22T13:22:20.516Z,47.80
2019-05-22T13:27:24.827Z,47.40
2019-05-22T13:32:29.643Z,48.00
2019-05-22T13:37:34.313Z,48.10
2019-05-22T13:42:39.666Z,48.60
2019-05-22T13:47:44.703Z,48.60
2019-05-22T13:52:50.023Z,48.80
2019-05-22T13:57:54.690Z,49.40
2019-05-22T14:03:00.047Z,49.80
2019-05-22T14:08:06.302Z,49.90
2019-05-22T14:13:10.879Z,49.70
2019-05-22T14:18:15.644Z,49.60
2019-05-22T14:23:20.286Z,49.60
2019-05-22T14:28:26.952Z,49.40
2019-05-22T14:33:32.381Z,48.80
2019-05-22T14:38:37.790Z,48.30
2019-05-22T14:43:42.488Z,47.70
2019-05-22T14:48:46.869Z,47.60
2019-05-22T14:53:53.362Z,47.20
2019-05-22T14:58:58.056Z,46.60
2019-05-22T15:04:02.757Z,46.10
2019-05-22T15:09:07.617Z,40.20
2019-05-22T15:14:12.007Z,31.50
2019-05-22T15:19:16.630Z,32.60
2019-05-22T15:24:21.164Z,32.10
2019-05-22T15:29:26.040Z,33.70
2019-05-22T15:34:31.516Z,37.10
2019-05-22T15:39:37.384Z,39.30
2019-05-22T15:44:41.860Z,39.70
2019-05-22T15:49:46.747Z,41.50
2019-05-22T15:54:51.926Z,41.90
2019-05-22T15:59:57.922Z,42.80
2019-05-22T16:05:02.660Z,44.00
2019-05-22T16:10:08.317Z,45.50
2019-05-22T16:15:13.659Z,45.70
2019-05-22T16:20:21.252Z,46.10
2019-05-22T16:25:27.367Z,46.30
2019-05-22T16:30:31.823Z,57.50
2019-05-22T16:35:36.639Z,63.80
2019-05-22T16:40:42.182Z,64.90
2019-05-22T16:45:46.635Z,63.90
2019-05-22T16:50:52.794Z,60.50
2019-05-22T16:55:58.107Z,58.50
2019-05-22T17:01:02.485Z,57.20
2019-05-22T17:06:07.322Z,55.70
2019-05-22T17:11:12.115Z,54.00
2019-05-22T17:16:16.464Z,52.30
2019-05-22T17:21:21.074Z,51.20
2019-05-22T17:26:25.531Z,48.00
2019-05-22T17:37:30.731Z,43.60
2019-05-22T17:42:36.068Z,44.10
2019-05-22T17:47:41.996Z,44.00
2019-05-22T17:52:47.395Z,44.00
2019-05-22T17:57:52.467Z,45.60
2019-05-22T18:02:58.482Z,46.00
2019-05-22T18:08:03.712Z,47.30
2019-05-22T18:13:10.289Z,46.70
2019-05-22T18:18:15.339Z,47.20
2019-05-22T18:23:20.342Z,48.10
2019-05-22T18:28:24.869Z,47.30
2019-05-22T18:33:29.337Z,49.20
2019-05-22T18:38:33.644Z,48.10
2019-05-22T18:43:38.350Z,48.10
2019-05-22T18:48:42.990Z,49.20
2019-05-22T18:53:47.545Z,49.00
2019-05-22T18:58:52.033Z,49.90
2019-05-22T19:03:56.596Z,50.00
2019-05-22T19:09:01.022Z,50.30
2019-05-22T19:14:05.859Z,51.00
2019-05-22T19:19:10.216Z,51.30
2019-05-22T19:24:14.675Z,51.90
2019-05-22T19:29:19.004Z,51.70
2019-05-22T19:34:23.375Z,52.40
2019-05-22T19:39:28.338Z,53.10
2019-05-22T19:44:32.719Z,53.00
2019-05-22T19:49:37.779Z,53.50
2019-05-22T19:54:42.448Z,53.30
2019-05-22T19:59:47.206Z,53.70
2019-05-22T20:04:51.810Z,53.80
2019-05-22T20:09:56.461Z,54.40
2019-05-22T20:15:01.410Z,55.00
2019-05-22T20:20:11.150Z,55.60
2019-05-22T20:25:19.349Z,55.80
2019-05-22T20:30:24.905Z,56.70
2019-05-22T20:35:29.391Z,58.20
2019-05-22T20:40:33.911Z,58.40
2019-05-22T20:45:41.147Z,59.40
2019-05-22T20:50:46.540Z,60.00
2019-05-22T22:04:40.246Z,66.60
2019-05-22T22:09:45.231Z,67.30
2019-05-22T22:14:51.477Z,67.60
2019-05-22T22:19:56.941Z,67.90
2019-05-22T22:25:01.852Z,68.60
2019-05-22T22:30:11.925Z,68.80
2019-05-22T22:35:19.814Z,69.30
2019-05-22T22:40:27.176Z,69.50
2019-05-22T22:45:43.789Z,70.00
2019-05-22T22:50:49.230Z,70.70
2019-05-22T22:55:54.612Z,70.00
2019-05-22T23:01:00.504Z,71.10
2019-05-22T23:06:06.858Z,71.10
2019-05-22T23:11:12.712Z,71.50
2019-05-22T23:16:19.068Z,71.70
2019-05-22T23:21:22.582Z,72.10
2019-05-22T23:26:27.585Z,72.50
2019-05-22T23:31:32.922Z,72.90
2019-05-22T23:36:37.840Z,73.10
2019-05-22T23:41:43.553Z,73.40
2019-05-22T23:46:47.964Z,74.20
2019-05-22T23:51:53.071Z,74.00
2019-05-22T23:56:59.153Z,74.10
